Cenky — TCZV7 — position and weather

sailwx.info

Track history (hours):
 
Tides and Currents Weather Stations Pressure Air Temp Water Temp Dewpoint Dewpoint Depression Visibility Wind Speed Wind Dir Waves Ship Positions

Cenky

Last reported at 2016-May-01 17:33 UTC. Time now 2016-May-02 01:24 UTC.
Position N 33°13' E 033°38'.

Length 150 m; draft 5.4 m.

Type: Ship. MMSI: 271042575.

Date/timePositionNaut miles runAvg speedWind from/ knotsBaromVisibWave heightAir tempDewpointWater temp
2016-May-01 17:33N 33°13' E 033°38'  
2016-Apr-26 03:12N 32°28' E 033°01'1012.2
2016-Apr-26 02:23N 32°37' E 033°06'1012.0
2016-Apr-26 01:33N 32°46' E 033°12'1211.9
2016-Apr-26 00:33N 32°56' E 033°19'1212.0
2016-Apr-25 23:33N 33°06' E 033°26'1312.2
2016-Apr-25 22:32N 33°17' E 033°33'1212.7
2016-Apr-25 21:33N 33°28' E 033°41'1513.0
2016-Apr-25 20:25N 33°41' E 033°49'1112.4
2016-Apr-25 19:33N 33°50' E 033°55'1211.7
2016-Apr-25 18:34N 34°00' E 034°02'1211.1
2016-Apr-25 17:30N 34°10' E 034°09'4210.7
2016-Apr-25 13:33N 34°47' E 034°36'3511.6
2016-Apr-25 10:32N 35°18' E 034°55'1212.1
2016-Apr-25 09:33N 35°29' E 035°01'1211.9
2016-Apr-25 08:31N 35°40' E 035°08'1111.4
2016-Apr-25 07:32N 35°50' E 035°15'1411.6
2016-Apr-25 06:20N 36°02' E 035°23'2312.4
2016-Apr-25 04:27N 36°22' E 035°38'9 0.3
2016-Apr-24 01:25N 36°13' E 035°42'1011.8
2016-Apr-24 00:33N 36°03' E 035°41'3210.6
2016-Apr-23 21:33N 35°38' E 035°17'6210.3
2016-Apr-23 15:34N 34°48' E 034°33'3310.5
2016-Apr-23 12:27N 34°23' E 034°07'1010.8
2016-Apr-23 11:33N 34°15' E 034°00'1110.7
2016-Apr-23 10:33N 34°06' E 033°53'1110.7
2016-Apr-23 09:34N 33°57' E 033°46'1111.3
2016-Apr-23 08:33N 33°48' E 033°39'1111.0
2016-Apr-23 07:34N 33°39' E 033°31'1111.0
2016-Apr-23 06:33N 33°30' E 033°23'1211.2
2016-Apr-23 05:28N 33°21' E 033°14'10810.9
2016-Apr-22 19:33N 31°41' E 032°26'1410.4
2016-Apr-22 18:15N 31°27' E 032°24'710.8
2016-Apr-22 17:33N 31°20' E 032°23'9 8.8
2016-Apr-22 16:32N 31°11' E 032°20'  
Track history (hours):
 
Tides and Currents Weather Stations Pressure Air Temp Water Temp Dewpoint Dewpoint Depression Visibility Wind Speed Wind Dir Waves Ship Positions

Cenky

Last reported at 2016-May-01 17:33 UTC. Time now 2016-May-02 01:24 UTC.
Position N 33°13' E 033°38'.

Length 150 m; draft 5.4 m.

Type: Ship. MMSI: 271042575.

Date/timePositionNaut miles runAvg speedWind from/ knotsBaromVisibWave heightAir tempDewpointWater temp
2016-May-01 17:33N 33°13' E 033°38'  
2016-Apr-26 03:12N 32°28' E 033°01'1012.2
2016-Apr-26 02:23N 32°37' E 033°06'1012.0
2016-Apr-26 01:33N 32°46' E 033°12'1211.9
2016-Apr-26 00:33N 32°56' E 033°19'1212.0
2016-Apr-25 23:33N 33°06' E 033°26'1312.2
2016-Apr-25 22:32N 33°17' E 033°33'1212.7
2016-Apr-25 21:33N 33°28' E 033°41'1513.0
2016-Apr-25 20:25N 33°41' E 033°49'1112.4
2016-Apr-25 19:33N 33°50' E 033°55'1211.7
2016-Apr-25 18:34N 34°00' E 034°02'1211.1
2016-Apr-25 17:30N 34°10' E 034°09'4210.7
2016-Apr-25 13:33N 34°47' E 034°36'3511.6
2016-Apr-25 10:32N 35°18' E 034°55'1212.1
2016-Apr-25 09:33N 35°29' E 035°01'1211.9
2016-Apr-25 08:31N 35°40' E 035°08'1111.4
2016-Apr-25 07:32N 35°50' E 035°15'1411.6
2016-Apr-25 06:20N 36°02' E 035°23'2312.4
2016-Apr-25 04:27N 36°22' E 035°38'9 0.3
2016-Apr-24 01:25N 36°13' E 035°42'1011.8
2016-Apr-24 00:33N 36°03' E 035°41'3210.6
2016-Apr-23 21:33N 35°38' E 035°17'6210.3
2016-Apr-23 15:34N 34°48' E 034°33'3310.5
2016-Apr-23 12:27N 34°23' E 034°07'1010.8
2016-Apr-23 11:33N 34°15' E 034°00'1110.7
2016-Apr-23 10:33N 34°06' E 033°53'1110.7
2016-Apr-23 09:34N 33°57' E 033°46'1111.3
2016-Apr-23 08:33N 33°48' E 033°39'1111.0
2016-Apr-23 07:34N 33°39' E 033°31'1111.0
2016-Apr-23 06:33N 33°30' E 033°23'1211.2
2016-Apr-23 05:28N 33°21' E 033°14'10810.9
2016-Apr-22 19:33N 31°41' E 032°26'1410.4
2016-Apr-22 18:15N 31°27' E 032°24'710.8
2016-Apr-22 17:33N 31°20' E 032°23'9 8.8
2016-Apr-22 16:32N 31°11' E 032°20'  

Dump ship's entire track history